Hovedside
METAR-TAF:

METAR-TAF

Lufthavner :

Tarawa, Kiribati

breddegrad: 01-21N, lengdegrad: 172-55E, høyde over havet: 2 m

Gjeldene værobservasjon

Denne rapporten ble laget for 26 minutter siden, klokken 09:00 UTC
Vind 9 kt fra Øst
Temperatur 28°C
Luftfuktighet 84%
Trykk 1010 hPa
Sikt 10 km eller mer
Få skyer i en høyde av 2000 ft

METAR: NGTA 190900Z 08009KT 9999 FEW020 28/25 Q1010

Tid: 23:26 (09:26 UTC)

Varsel

Denne rapporten ble laget for 4 timer og 13 minutter siden, klokken 05:13 UTC
Varsel gyldig fra 19. klokken 06 UTC til 20. klokken 06 UTC
Vind 10 kt fra Øst
Sikt 10 km eller mer
Få skyer i en høyde av 2000 ft

TAF: NGTA 190513Z 1906/2006 08010KT 9999 FEW020

Værobservasjoner og værvarsel for over 4000 flyplasser (METAR- og TAF-rapporter).

Tilgjengelige stasjoner er representert av de røde og gule prikkene på kartet.

Hold musepekeren over prikken for å se navnet på stasjonen.

Klikk så for å se værobservasjoner og -varsler.

For å forandre kartet kan du klikke på den grønne knappen med svart kryss for å zoome inn, på den grønne knappen med strek for å zoome ut, eller på de grønne pilene for å se tilstøtende kart.


METAR-TAF: